createdAt,value
2018-12-27T06:13:05.512Z,17.00
2018-12-27T06:15:35.004Z,18.60
2018-12-27T06:18:04.925Z,18.70
2018-12-27T06:20:34.572Z,18.90
2018-12-27T06:23:03.672Z,19.00
2018-12-27T06:25:33.158Z,19.20
2018-12-27T06:28:03.176Z,19.30
2018-12-27T06:30:32.022Z,19.40
2018-12-27T06:33:00.856Z,19.50
2018-12-27T06:35:30.883Z,19.50
2018-12-27T06:38:00.538Z,19.60
2018-12-27T06:40:29.835Z,19.70
2018-12-27T06:42:59.582Z,19.70
2018-12-27T06:45:29.127Z,19.80
2018-12-27T06:47:58.319Z,19.80
2018-12-27T06:50:27.491Z,19.90
2018-12-27T06:52:56.946Z,19.90
2018-12-27T06:55:26.354Z,19.90
2018-12-27T06:57:55.631Z,19.90
2018-12-27T07:00:24.847Z,19.90
2018-12-27T07:02:54.318Z,19.90
2018-12-27T07:05:23.100Z,19.90
2018-12-27T07:07:52.625Z,19.90
2018-12-27T07:10:21.916Z,19.90
2018-12-27T07:12:51.129Z,19.90
2018-12-27T07:15:20.305Z,20.00
2018-12-27T07:17:49.314Z,20.00
2018-12-27T07:20:18.646Z,20.00
2018-12-27T07:22:48.273Z,20.00
2018-12-27T07:25:17.527Z,20.00
2018-12-27T07:27:47.157Z,20.00
2018-12-27T07:30:15.886Z,20.00
2018-12-27T07:32:45.277Z,20.00
2018-12-27T07:35:14.478Z,20.00
2018-12-27T07:37:43.975Z,20.00
2018-12-27T07:40:13.357Z,20.10
2018-12-27T07:42:42.906Z,20.10
2018-12-27T07:45:12.433Z,20.10
2018-12-27T07:47:41.186Z,20.10
2018-12-27T07:50:10.797Z,20.10
2018-12-27T07:52:39.866Z,20.10
2018-12-27T07:55:08.681Z,20.10
2018-12-27T07:57:38.415Z,20.10
2018-12-27T08:00:07.511Z,20.10
2018-12-27T08:02:36.783Z,20.20
2018-12-27T08:05:05.779Z,20.10
2018-12-27T08:07:35.167Z,20.10
2018-12-27T08:10:04.846Z,20.10
2018-12-27T08:12:35.123Z,20.10
2018-12-27T08:15:07.376Z,20.10
2018-12-27T08:17:36.654Z,20.10
2018-12-27T08:20:06.193Z,20.00
2018-12-27T08:22:35.224Z,20.10
2018-12-27T08:25:04.183Z,20.10
2018-12-27T08:27:33.763Z,20.10
2018-12-27T08:32:31.646Z,20.20
2018-12-27T08:35:00.783Z,20.20
2018-12-27T08:37:30.479Z,20.30
2018-12-27T08:40:00.033Z,20.30
2018-12-27T08:42:29.608Z,20.40
2018-12-27T08:44:58.871Z,20.40
2018-12-27T08:47:28.032Z,20.50
2018-12-27T08:49:57.206Z,20.50
2018-12-27T08:52:26.243Z,20.60
2018-12-27T08:54:55.030Z,20.60
2018-12-27T08:59:52.907Z,20.70
2018-12-27T09:04:50.767Z,20.70
2018-12-27T09:07:20.357Z,20.60
2018-12-27T09:09:49.395Z,20.60
2018-12-27T09:12:18.199Z,20.60
2018-12-27T09:14:47.762Z,20.50
2018-12-27T09:17:16.543Z,20.50
2018-12-27T09:19:45.905Z,20.40
2018-12-27T09:22:15.295Z,20.40
2018-12-27T09:24:44.507Z,20.30
2018-12-27T09:27:13.809Z,20.30
2018-12-27T09:29:43.016Z,20.20
2018-12-27T09:32:12.537Z,20.20
2018-12-27T09:34:42.147Z,20.20
2018-12-27T09:37:11.352Z,20.10
2018-12-27T09:39:40.547Z,20.10
2018-12-27T09:42:10.233Z,20.00
2018-12-27T09:44:39.178Z,19.90
2018-12-27T09:47:08.366Z,19.90
2018-12-27T09:49:37.709Z,19.80
2018-12-27T09:52:07.478Z,19.70
2018-12-27T09:54:37.087Z,19.70
2018-12-27T09:57:05.943Z,19.60
2018-12-27T09:59:36.787Z,19.60
2018-12-27T10:02:05.569Z,19.50
2018-12-27T10:04:34.960Z,19.50
2018-12-27T10:07:03.973Z,19.40
2018-12-27T10:09:33.079Z,19.40
2018-12-27T10:14:30.906Z,19.30
2018-12-27T10:16:59.882Z,19.30
2018-12-27T10:19:28.677Z,19.30
2018-12-27T10:21:58.249Z,19.20
2018-12-27T10:24:28.108Z,19.20
2018-12-27T10:26:57.825Z,19.20
2018-12-27T10:29:28.007Z,19.20
2018-12-27T10:31:56.023Z,19.20
2018-12-27T10:34:25.345Z,19.10
2018-12-27T10:36:54.240Z,19.10
2018-12-27T10:39:23.140Z,19.10
2018-12-27T10:41:53.501Z,19.10
2018-12-27T10:44:21.973Z,19.00
2018-12-27T10:46:51.122Z,19.10
2018-12-27T10:49:20.788Z,19.10
2018-12-27T10:51:50.257Z,19.10
2018-12-27T10:54:19.137Z,19.10
2018-12-27T10:56:48.908Z,19.10
2018-12-27T10:59:18.158Z,19.10
2018-12-27T11:01:47.536Z,19.10
2018-12-27T11:04:16.901Z,19.10
2018-12-27T11:06:46.004Z,19.20
2018-12-27T11:09:14.982Z,19.20
2018-12-27T11:11:44.537Z,19.20
2018-12-27T11:14:13.788Z,19.20
2018-12-27T11:16:43.202Z,19.20
2018-12-27T11:19:12.317Z,19.20
2018-12-27T11:21:41.947Z,19.20
2018-12-27T11:24:11.418Z,19.20
2018-12-27T11:26:40.572Z,19.20
2018-12-27T11:29:09.765Z,19.30
2018-12-27T11:31:38.595Z,19.30
2018-12-27T11:34:07.951Z,19.30
2018-12-27T11:36:37.209Z,19.30
2018-12-27T11:39:07.010Z,19.30
2018-12-27T11:41:35.779Z,19.30
2018-12-27T11:44:04.799Z,19.30
2018-12-27T11:46:34.138Z,19.40
2018-12-27T11:49:03.027Z,19.40
2018-12-27T11:51:32.115Z,19.40
2018-12-27T11:54:01.316Z,19.40
2018-12-27T11:56:30.258Z,19.40
2018-12-27T11:58:59.440Z,19.40
2018-12-27T12:01:28.925Z,19.40
2018-12-27T12:03:58.563Z,19.40
2018-12-27T12:06:27.899Z,19.40
2018-12-27T12:08:56.853Z,19.40
2018-12-27T12:13:27.401Z,19.40
2018-12-27T12:15:56.694Z,19.40
2018-12-27T12:18:26.104Z,19.40
2018-12-27T12:20:55.631Z,19.40
2018-12-27T12:23:24.623Z,19.30
2018-12-27T12:25:55.180Z,19.30
2018-12-27T12:28:23.089Z,19.30
2018-12-27T12:30:52.563Z,19.30
2018-12-27T12:33:21.694Z,19.30
2018-12-27T12:35:51.388Z,19.30
2018-12-27T12:38:20.554Z,19.30
2018-12-27T12:40:49.997Z,19.30
2018-12-27T12:43:18.876Z,19.30
2018-12-27T12:45:48.393Z,19.40
2018-12-27T12:48:17.178Z,19.40
2018-12-27T12:50:46.522Z,19.40
2018-12-27T12:53:15.922Z,19.30
2018-12-27T12:55:45.035Z,19.30
2018-12-27T12:58:14.100Z,19.30
2018-12-27T13:00:44.376Z,19.30
2018-12-27T13:03:13.812Z,19.20
2018-12-27T13:05:42.988Z,19.20
2018-12-27T13:08:12.443Z,19.20
2018-12-27T13:10:41.800Z,19.20
2018-12-27T13:13:10.771Z,19.10
2018-12-27T13:15:39.669Z,19.10
2018-12-27T13:18:09.876Z,19.20
2018-12-27T13:20:39.126Z,19.20
2018-12-27T13:23:07.916Z,19.30
2018-12-27T13:25:37.344Z,19.20
2018-12-27T13:28:06.680Z,19.30
2018-12-27T13:30:35.851Z,19.20
2018-12-27T13:33:04.899Z,19.20
2018-12-27T13:35:33.575Z,19.20
2018-12-27T13:38:02.487Z,19.20
2018-12-27T13:40:31.716Z,19.20
2018-12-27T13:43:00.883Z,19.20
2018-12-27T13:45:30.009Z,19.20
2018-12-27T13:47:58.777Z,19.10
2018-12-27T13:50:27.861Z,19.10
2018-12-27T13:52:56.833Z,19.10
2018-12-27T13:55:25.611Z,19.10
2018-12-27T13:57:54.440Z,19.10
2018-12-27T14:00:24.073Z,19.00
2018-12-27T14:02:53.053Z,19.00
2018-12-27T14:05:22.391Z,19.00
2018-12-27T14:07:51.542Z,19.00
2018-12-27T14:10:20.356Z,19.00
2018-12-27T14:12:49.582Z,19.00
2018-12-27T14:15:18.873Z,19.00
2018-12-27T14:17:48.492Z,19.00
2018-12-27T14:20:17.335Z,18.90
2018-12-27T14:22:46.427Z,19.00
2018-12-27T14:25:15.191Z,19.00
2018-12-27T14:27:44.184Z,18.90
2018-12-27T14:30:13.388Z,18.90
2018-12-27T14:32:42.720Z,18.90
2018-12-27T14:35:12.055Z,18.90
2018-12-27T14:37:41.321Z,18.90
2018-12-27T14:40:10.303Z,18.90
2018-12-27T14:42:39.473Z,18.80
2018-12-27T14:45:08.797Z,18.80
2018-12-27T14:47:37.823Z,18.80
2018-12-27T14:50:07.247Z,18.80
2018-12-27T14:52:36.009Z,18.70
2018-12-27T14:55:04.927Z,18.70
2018-12-27T14:57:34.691Z,18.70
2018-12-27T15:00:03.625Z,18.80
2018-12-27T15:02:32.904Z,18.70
2018-12-27T15:05:02.140Z,18.70
2018-12-27T15:07:31.392Z,18.70
2018-12-27T15:10:00.271Z,18.70
2018-12-27T15:12:29.873Z,18.70
2018-12-27T15:14:59.221Z,18.70
2018-12-27T15:17:28.073Z,18.60
2018-12-27T15:19:57.229Z,18.60
2018-12-27T15:22:26.824Z,18.60
2018-12-27T15:24:56.299Z,18.60
2018-12-27T15:27:25.857Z,18.60
2018-12-27T15:29:55.361Z,18.50
2018-12-27T15:32:24.860Z,18.50
2018-12-27T15:34:54.309Z,18.50
2018-12-27T15:37:23.831Z,18.50
2018-12-27T15:39:52.815Z,18.50
2018-12-27T15:42:22.058Z,18.50
2018-12-27T15:44:51.487Z,18.50
2018-12-27T15:47:21.041Z,18.50
2018-12-27T15:49:50.056Z,18.60
2018-12-27T15:52:19.079Z,18.60
2018-12-27T15:54:48.365Z,18.60
2018-12-27T15:57:17.798Z,18.60
2018-12-27T15:59:46.811Z,18.60
2018-12-27T16:02:15.725Z,18.60
2018-12-27T16:04:45.121Z,18.60
2018-12-27T16:07:14.076Z,18.60
2018-12-27T16:09:42.907Z,18.60
2018-12-27T16:12:12.154Z,18.60
2018-12-27T16:14:44.433Z,18.60
2018-12-27T16:17:10.368Z,18.60
2018-12-27T16:19:39.440Z,18.70
2018-12-27T16:22:08.599Z,18.70
2018-12-27T16:24:37.861Z,18.70
2018-12-27T16:27:08.385Z,18.70
2018-12-27T16:29:36.216Z,18.70
2018-12-27T16:32:05.386Z,18.70
2018-12-27T16:34:34.586Z,18.70
2018-12-27T16:37:08.978Z,18.70
2018-12-27T16:39:32.713Z,18.70
2018-12-27T16:42:01.851Z,18.70
2018-12-27T16:44:31.813Z,18.70
2018-12-27T16:47:00.824Z,18.70
2018-12-27T16:49:30.165Z,18.70
2018-12-27T16:51:59.211Z,18.70
2018-12-27T16:54:28.935Z,18.80
2018-12-27T16:56:58.934Z,18.80
2018-12-27T16:59:27.966Z,18.80
2018-12-27T17:01:57.306Z,18.70
2018-12-27T17:04:26.485Z,18.80
2018-12-27T17:06:55.249Z,18.80
2018-12-27T17:09:25.030Z,18.80
2018-12-27T17:11:54.889Z,18.80
2018-12-27T17:14:24.179Z,18.80
2018-12-27T17:16:54.155Z,18.80
2018-12-27T17:19:23.663Z,18.80
2018-12-27T17:21:53.353Z,18.80
2018-12-27T17:24:22.807Z,18.80
2018-12-27T17:26:52.110Z,18.80
2018-12-27T17:29:21.319Z,18.80
2018-12-27T17:31:50.720Z,18.80
2018-12-27T17:34:20.319Z,18.90
2018-12-27T17:36:49.635Z,18.90
2018-12-27T17:39:19.292Z,18.90
2018-12-27T17:41:48.841Z,18.90
2018-12-27T17:44:18.114Z,18.90
2018-12-27T17:46:47.358Z,18.90
2018-12-27T17:49:17.117Z,18.90
2018-12-27T17:51:46.200Z,18.90
2018-12-27T17:54:15.350Z,18.90
2018-12-27T17:56:45.658Z,18.90
2018-12-27T17:59:15.444Z,18.90
2018-12-27T18:01:44.615Z,18.90
2018-12-27T18:04:13.905Z,18.90
2018-12-27T18:06:43.724Z,18.90
2018-12-27T18:09:13.415Z,19.00
2018-12-27T18:11:42.882Z,19.00
2018-12-27T18:14:14.316Z,19.00
2018-12-27T18:16:43.905Z,19.00
2018-12-27T18:19:13.714Z,19.00
2018-12-27T18:21:43.696Z,19.00
2018-12-27T18:24:13.313Z,19.00
2018-12-27T18:26:43.019Z,19.10
2018-12-27T18:29:12.834Z,19.10
2018-12-27T18:31:42.427Z,19.10
2018-12-27T18:34:11.967Z,19.10
2018-12-27T18:36:41.572Z,19.10
2018-12-27T18:39:10.808Z,19.10
2018-12-27T18:41:40.012Z,19.10
2018-12-27T18:44:09.185Z,19.10
2018-12-27T18:46:38.259Z,19.10
2018-12-27T18:49:07.875Z,19.10
2018-12-27T18:51:37.022Z,19.10
2018-12-27T18:54:06.702Z,19.10
2018-12-27T18:56:36.250Z,19.10
2018-12-27T18:59:05.474Z,19.20
2018-12-27T19:01:34.936Z,19.20
2018-12-27T19:04:04.962Z,19.20
2018-12-27T19:06:34.036Z,19.20
2018-12-27T19:09:03.388Z,19.10
2018-12-27T19:11:43.900Z,19.20
2018-12-27T19:14:13.911Z,19.10
2018-12-27T19:16:43.911Z,19.10
2018-12-27T19:19:13.585Z,19.20
2018-12-27T19:21:50.261Z,19.20
2018-12-27T19:24:19.764Z,19.10
2018-12-27T19:26:48.913Z,19.10
2018-12-27T19:29:17.648Z,19.20
2018-12-27T19:31:46.702Z,19.20
2018-12-27T19:34:15.837Z,19.10
2018-12-27T19:36:45.046Z,19.20
2018-12-27T19:39:14.852Z,19.20
2018-12-27T19:41:44.436Z,19.20
2018-12-27T19:44:14.059Z,19.20
2018-12-27T19:46:43.772Z,19.20
2018-12-27T19:49:17.253Z,19.20
2018-12-27T19:51:46.739Z,19.20
2018-12-27T19:54:15.644Z,19.10
2018-12-27T19:56:45.387Z,19.20
2018-12-27T19:59:15.003Z,19.20
2018-12-27T20:01:44.313Z,19.20
2018-12-27T20:04:13.821Z,19.20
2018-12-27T20:06:44.139Z,19.20
2018-12-27T20:09:13.973Z,19.20
2018-12-27T20:11:43.563Z,19.20
2018-12-27T20:14:12.425Z,19.20
2018-12-27T20:16:42.022Z,19.20
2018-12-27T20:19:11.332Z,19.20
2018-12-27T20:21:40.595Z,19.20
2018-12-27T20:24:10.317Z,19.20
2018-12-27T20:26:39.080Z,19.20
2018-12-27T20:29:08.229Z,19.20
2018-12-27T20:31:37.419Z,19.20
2018-12-27T20:34:06.673Z,19.20
2018-12-27T20:36:35.793Z,19.20
2018-12-27T20:39:06.247Z,19.20
2018-12-27T20:41:35.657Z,19.20
2018-12-27T20:44:05.388Z,19.20
2018-12-27T20:46:35.524Z,19.20
2018-12-27T20:49:04.864Z,19.20
2018-12-27T20:51:34.572Z,19.10
2018-12-27T20:54:03.805Z,19.20
2018-12-27T20:56:32.784Z,19.10
2018-12-27T20:59:01.588Z,19.10
2018-12-27T21:01:30.375Z,19.10
2018-12-27T21:03:59.246Z,19.10
2018-12-27T21:06:28.081Z,19.10
2018-12-27T21:08:57.280Z,19.10
2018-12-27T21:11:26.075Z,19.10
2018-12-27T21:13:55.575Z,19.10
2018-12-27T21:16:24.643Z,19.10
2018-12-27T21:18:54.230Z,19.10
2018-12-27T21:21:23.783Z,19.10
2018-12-27T21:23:52.653Z,19.10
2018-12-27T21:26:21.699Z,19.10
2018-12-27T21:28:51.103Z,19.10
2018-12-27T21:31:19.926Z,19.10
2018-12-27T21:33:49.320Z,19.10
2018-12-27T21:36:18.410Z,19.10
2018-12-27T21:38:47.794Z,19.10
2018-12-27T21:41:17.323Z,19.10
2018-12-27T21:43:46.201Z,19.00
2018-12-27T21:46:15.452Z,19.10
2018-12-27T21:48:44.409Z,19.00
2018-12-27T21:51:13.383Z,19.00
2018-12-27T21:53:42.197Z,19.00
2018-12-27T21:56:11.106Z,19.00
2018-12-27T21:58:40.352Z,19.00
2018-12-27T22:01:09.887Z,19.00
2018-12-27T22:03:38.918Z,19.00
2018-12-27T22:06:07.869Z,19.00
2018-12-27T22:08:36.884Z,19.00
2018-12-27T22:11:05.736Z,19.00
2018-12-27T22:13:34.892Z,19.00
2018-12-27T22:16:03.886Z,19.00
2018-12-27T22:18:32.959Z,19.00
2018-12-27T22:21:02.338Z,19.00
2018-12-27T22:23:32.284Z,19.00
2018-12-27T22:26:01.791Z,19.00
2018-12-27T22:28:31.412Z,19.00
2018-12-27T22:31:01.318Z,19.00
2018-12-27T22:33:30.437Z,18.90
2018-12-27T22:35:59.236Z,18.90
2018-12-27T22:38:28.212Z,18.90
2018-12-27T22:40:57.315Z,18.90
2018-12-27T22:43:26.143Z,18.80
2018-12-27T22:45:55.045Z,18.80
2018-12-27T22:48:24.071Z,18.80
2018-12-27T22:50:52.901Z,18.80
2018-12-27T22:53:22.051Z,18.70
2018-12-27T22:55:56.092Z,18.70
2018-12-27T22:58:26.000Z,18.60
2018-12-27T23:00:55.559Z,18.60
2018-12-27T23:03:24.505Z,18.60
2018-12-27T23:05:54.152Z,18.60
2018-12-27T23:08:23.137Z,18.50
2018-12-27T23:10:51.978Z,18.50
2018-12-27T23:13:20.910Z,18.50
2018-12-27T23:15:49.827Z,18.40
2018-12-27T23:18:18.959Z,18.40
2018-12-27T23:20:47.947Z,18.40
2018-12-27T23:23:17.539Z,18.40
2018-12-27T23:25:46.640Z,18.30
2018-12-27T23:28:15.698Z,18.30
2018-12-27T23:30:44.857Z,18.30
2018-12-27T23:33:14.056Z,18.20
2018-12-27T23:35:43.529Z,18.20
2018-12-27T23:38:13.222Z,18.10
2018-12-27T23:40:42.257Z,18.10
2018-12-27T23:43:11.531Z,18.10
2018-12-27T23:45:40.921Z,18.10
2018-12-27T23:48:10.480Z,18.00
2018-12-27T23:50:40.354Z,18.00
2018-12-27T23:53:09.796Z,18.00
2018-12-27T23:55:39.609Z,18.00
2018-12-27T23:58:09.065Z,17.90
